Time;durP1;ratioP1;P1;durP2;ratioP2;P2;SDS_P1;SDS_P2;PMS_P1;PMS_P2;Temp;Humidity;BMP_temperature;BMP_pressure;BME280_temperature;BME280_humidity;BME280_pressure;Samples;Min_cycle;Max_cycle;Signal;HPM_P1;HPM_P2
2022/09/26 00:01:42;;;;;;;5.87;3.23;;;;;;;;;;4991371;28;20457;-73
2022/09/26 00:04:14;;;;;;;4.17;3.10;;;;;;;;;;4991009;28;20515;-75
2022/09/26 00:06:41;;;;;;;4.57;3.03;;;;;;;;;;4992919;28;20467;-74
2022/09/26 00:09:09;;;;;;;4.83;3.30;;;;;;;;;;4992031;28;20990;-73
2022/09/26 00:11:36;;;;;;;5.87;4.13;;;;;;;;;;4992736;28;20473;-75
2022/09/26 00:14:04;;;;;;;5.77;4.07;;;;;;;;;;4991137;28;20804;-74
2022/09/26 00:16:31;;;;;;;7.17;3.83;;;;;;;;;;4991697;28;20492;-73
2022/09/26 00:18:59;;;;;;;6.80;3.70;;;;;;;;;;4990874;28;20461;-73
2022/09/26 00:21:29;;;;;;;4.70;4.00;;;;;;;;;;4991676;28;20449;-75
2022/09/26 00:23:57;;;;;;;5.17;3.70;;;14.00;99.90;;;;;;4991160;28;20520;-75
2022/09/26 00:26:25;;;;;;;6.90;3.40;;;;;;;;;;4991394;28;21004;-75
2022/09/26 00:29:06;;;;;;;4.47;2.80;;;;;;;;;;4990391;28;20449;-74
2022/09/26 00:31:34;;;;;;;5.03;3.27;;;;;;;;;;4991728;28;20453;-75
2022/09/26 00:34:01;;;;;;;4.70;3.10;;;;;;;;;;4990455;28;20963;-75
2022/09/26 00:36:32;;;;;;;4.03;3.40;;;;;;;;;;4991467;28;20500;-75
2022/09/26 00:38:59;;;;;;;5.17;3.80;;;;;;;;;;4990087;28;20441;-75
2022/09/26 00:41:27;;;;;;;6.53;3.70;;;;;;;;;;4979790;28;20809;-75
2022/09/26 00:43:54;;;;;;;4.20;3.43;;;;;;;;;;4990383;28;20787;-74
2022/09/26 00:46:26;;;;;;;5.50;3.93;;;;;;;;;;4990984;28;20499;-75
2022/09/26 00:48:56;;;;;;;5.37;3.30;;;;;;;;;;4989720;28;20453;-74
2022/09/26 00:51:23;;;;;;;5.37;3.83;;;;;;;;;;4991169;28;20453;-75
2022/09/26 00:53:52;;;;;;;3.73;3.33;;;;;;;;;;4990425;28;20971;-73
2022/09/26 00:56:21;;;;;;;4.10;3.30;;;;;;;;;;4990915;28;20496;-74
2022/09/26 00:58:50;;;;;;;3.93;3.10;;;;;;;;;;4990434;28;20453;-75
2022/09/26 01:01:18;;;;;;;4.60;3.63;;;;;;;;;;4990803;28;20463;-74
2022/09/26 01:03:46;;;;;;;3.97;3.50;;;;;;;;;;4991184;28;20811;-74
2022/09/26 01:06:14;;;;;;;4.13;3.73;;;;;;;;;;4990872;28;20452;-74
2022/09/26 01:08:44;;;;;;;5.63;3.73;;;;;;;;;;4994568;28;20456;-75
2022/09/26 01:11:17;;;;;;;5.10;3.30;;;;;;;;;;4994362;28;20545;-75
2022/09/26 01:13:44;;;;;;;4.60;3.30;;;;;;;;;;4981997;28;20441;-75
2022/09/26 01:16:11;;;;;;;5.83;3.50;;;;;;;;;;4994402;28;20449;-74
2022/09/26 01:18:38;;;;;;;5.40;3.70;;;;;;;;;;4994295;28;20500;-74
2022/09/26 01:21:15;;;;;;;8.07;4.40;;;;;;;;;;4994330;28;20457;-73
2022/09/26 01:23:53;;;;;;;4.10;3.60;;;;;;;;;;4994387;28;20955;-75
2022/09/26 01:26:30;;;;;;;5.87;3.50;;;;;;;;;;4994321;28;20507;-74
2022/09/26 01:29:20;;;;;;;5.33;3.23;;;;;;;;;;4993528;28;20449;-76
2022/09/26 01:34:41;;;;;;;6.60;4.63;;;;;;;;;;4993118;28;20459;-74
2022/09/26 01:37:15;;;;;;;4.67;3.43;;;12.30;99.90;;;;;;4993445;28;20961;-75
2022/09/26 01:39:54;;;;;;;4.40;3.20;;;11.10;99.90;;;;;;4981360;28;20464;-75
2022/09/26 01:42:28;;;;;;;4.07;3.50;;;10.90;99.90;;;;;;4994155;28;20448;-74
2022/09/26 01:45:04;;;;;;;5.27;3.57;;;11.10;99.90;;;;;;4993476;28;20456;-74
2022/09/26 01:47:41;;;;;;;5.13;4.40;;;11.10;99.90;;;;;;4993551;28;20462;-74
2022/09/26 01:50:17;;;;;;;5.23;3.60;;;11.10;99.90;;;;;;4993690;28;20457;-75
2022/09/26 01:52:51;;;;;;;5.07;3.70;;;11.20;99.90;;;;;;4994330;28;20790;-74
2022/09/26 01:55:21;;;;;;;7.63;3.50;;;11.10;99.90;;;;;;4993909;28;20453;-75
2022/09/26 01:57:53;;;;;;;5.20;3.87;;;11.00;99.90;;;;;;4993159;28;20495;-73
2022/09/26 02:00:20;;;;;;;3.90;2.63;;;;;;;;;;4993543;28;20932;-75
2022/09/26 02:02:50;;;;;;;4.60;3.40;;;;;;;;;;4993512;28;20467;-74
2022/09/26 02:05:21;;;;;;;5.60;3.50;;;;;;;;;;4993706;28;20461;-75
2022/09/26 02:07:51;;;;;;;4.90;3.67;;;;;;;;;;4993233;28;20462;-74
2022/09/26 02:10:19;;;;;;;5.20;3.13;;;;;;;;;;4992896;28;20479;-74
2022/09/26 02:12:49;;;;;;;5.60;3.37;;;;;;;;;;4993037;28;20456;-74
2022/09/26 02:15:18;;;;;;;6.50;3.43;;;;;;;;;;4993329;28;20808;-74
2022/09/26 02:17:47;;;;;;;7.27;3.60;;;;;;;;;;4992312;28;20489;-74
2022/09/26 02:20:17;;;;;;;5.80;3.10;;;;;;;;;;4980089;28;20543;-74
2022/09/26 02:22:44;;;;;;;4.27;3.10;;;;;;;;;;4993201;28;20461;-74
2022/09/26 02:25:11;;;;;;;4.47;3.67;;;;;;;;;;4992668;28;20451;-74
2022/09/26 02:27:38;;;;;;;8.60;3.63;;;;;;;;;;4992630;28;20445;-74
2022/09/26 02:30:06;;;;;;;6.30;3.83;;;;;;;;;;4992370;28;20462;-73
2022/09/26 02:32:34;;;;;;;6.07;4.17;;;;;;;;;;4993162;28;20451;-74
2022/09/26 02:35:52;;;;;;;6.00;3.50;;;;;;;;;;4992010;28;20960;-74
2022/09/26 02:37:51;;;;;;;5.93;4.00;;;;;;;;;;4991939;28;20484;-73
2022/09/26 02:40:19;;;;;;;6.07;4.30;;;;;;;;;;4993092;28;20461;-74
2022/09/26 02:42:51;;;;;;;5.50;3.90;;;;;;;;;;4992400;28;20559;-74
2022/09/26 02:45:25;;;;;;;6.00;3.93;;;;;;;;;;4992795;28;20461;-75
2022/09/26 02:48:19;;;;;;;3.83;3.03;;;;;;;;;;4979739;28;20490;-73
2022/09/26 02:50:53;;;;;;;4.57;3.60;;;;;;;;;;4946844;28;20456;-74
2022/09/26 02:53:35;;;;;;;4.50;3.20;;;;;;;;;;4992736;28;20479;-74
2022/09/26 02:56:05;;;;;;;5.97;3.50;;;;;;;;;;4980328;28;20447;-74
2022/09/26 02:58:37;;;;;;;4.97;3.07;;;;;;;;;;4992012;28;20478;-74
2022/09/26 03:01:09;;;;;;;3.47;2.43;;;;;;;;;;4991935;28;20509;-74
2022/09/26 03:03:38;;;;;;;4.20;3.33;;;;;;;;;;4992557;28;20507;-74
2022/09/26 03:06:07;;;;;;;5.10;3.23;;;;;;;;;;4991855;28;20464;-74
2022/09/26 03:08:38;;;;;;;5.13;3.93;;;;;;;;;;4991938;28;20463;-74
2022/09/26 03:11:06;;;;;;;6.10;3.47;;;;;;;;;;4991443;28;21073;-73
2022/09/26 03:13:35;;;;;;;3.80;2.90;;;;;;;;;;4992131;28;20447;-74
2022/09/26 03:16:02;;;;;;;5.67;3.90;;;;;;;;;;4991835;28;20459;-73
2022/09/26 03:18:32;;;;;;;7.30;3.40;;;;;;;;;;4991442;28;20500;-74
2022/09/26 03:20:59;;;;;;;5.03;3.83;;;;;;;;;;4991828;28;20538;-73
2022/09/26 03:23:27;;;;;;;4.97;3.40;;;;;;;;;;4992161;28;20554;-74
2022/09/26 03:26:00;;;;;;;4.00;3.40;;;;;;;;;;4991324;28;20449;-73
2022/09/26 03:28:27;;;;;;;4.40;2.43;;;;;;;;;;4979407;28;20784;-74
2022/09/26 03:30:54;;;;;;;4.50;3.13;;;;;;;;;;4991041;28;20584;-73
2022/09/26 03:33:22;;;;;;;4.27;3.23;;;;;;;;;;4991729;28;20456;-74
2022/09/26 03:35:49;;;;;;;7.27;2.93;;;;;;;;;;4992086;28;20455;-73
2022/09/26 03:38:16;;;;;;;4.33;3.57;;;;;;;;;;4991900;28;20595;-75
2022/09/26 03:40:44;;;;;;;3.87;3.50;;;;;;;;;;4991656;28;20471;-74
2022/09/26 03:43:12;;;;;;;3.10;2.77;;;;;;;;;;4991285;28;20757;-75
2022/09/26 03:45:39;;;;;;;3.70;2.83;;;;;;;;;;4991871;28;20456;-74
2022/09/26 03:48:06;;;;;;;3.73;3.20;;;;;;;;;;4991125;28;20457;-74
2022/09/26 03:50:34;;;;;;;5.10;3.20;;;;;;;;;;4991885;28;20460;-73
2022/09/26 03:53:01;;;;;;;5.10;3.57;;;;;;;;;;4991141;28;20464;-74
2022/09/26 03:55:28;;;;;;;7.20;3.53;;;;;;;;;;4991365;28;20469;-73
2022/09/26 03:57:56;;;;;;;4.60;3.50;;;;;;;;;;4990483;28;20489;-73
2022/09/26 04:00:25;;;;;;;4.67;2.87;;;;;;;;;;4991513;28;20458;-74
2022/09/26 04:02:52;;;;;;;4.30;3.33;;;;;;;;;;4991013;28;20805;-73
2022/09/26 04:05:19;;;;;;;3.80;3.40;;;;;;;;;;4991915;28;20453;-73
2022/09/26 04:07:47;;;;;;;4.83;3.07;;;;;;;;;;4991892;28;20806;-74
2022/09/26 04:10:15;;;;;;;4.43;2.97;;;;;;;;;;4990994;28;20479;-75
2022/09/26 04:12:42;;;;;;;2.60;2.20;;;;;;;;;;4992438;28;20546;-75
2022/09/26 04:15:10;;;;;;;3.40;2.90;;;;;;;;;;4992748;28;20758;-74
2022/09/26 04:17:38;;;;;;;13.60;6.00;;;;;;;;;;4992431;28;20490;-74
2022/09/26 04:20:06;;;;;;;5.20;3.43;;;;;;;;;;4990703;28;20452;-74
2022/09/26 04:22:33;;;;;;;4.23;3.47;;;;;;;;;;4991239;28;20457;-74
2022/09/26 04:25:00;;;;;;;6.50;2.93;;;;;;;;;;4990618;28;20454;-74
2022/09/26 04:27:28;;;;;;;5.10;3.03;;;;;;;;;;4990869;28;20934;-74
2022/09/26 04:29:57;;;;;;;3.90;3.30;;;;;;;;;;4990848;28;20455;-73
2022/09/26 04:32:24;;;;;;;3.47;2.43;;;;;;;;;;4991256;28;20506;-74
2022/09/26 04:34:52;;;;;;;4.70;3.03;;;;;;;;;;4991038;28;20447;-73
2022/09/26 04:37:19;;;;;;;4.17;3.10;;;;;;;;;;4990604;28;20486;-74
2022/09/26 04:39:47;;;;;;;3.27;2.27;;;;;;;;;;4990846;28;20539;-74
2022/09/26 04:42:16;;;;;;;4.60;2.33;;;;;;;;;;4992169;28;20458;-73
2022/09/26 04:44:43;;;;;;;4.70;2.73;;;;;;;;;;4994761;28;20457;-73
2022/09/26 04:47:11;;;;;;;3.53;2.47;;;;;;;;;;4993530;28;20451;-74
2022/09/26 04:49:38;;;;;;;4.93;3.60;;;;;;;;;;4994697;28;20464;-73
2022/09/26 04:52:06;;;;;;;3.77;3.07;;;;;;;;;;4993898;28;20463;-74
2022/09/26 04:54:37;;;;;;;4.97;2.67;;;;;;;;;;4994185;28;20452;-73
2022/09/26 04:57:04;;;;;;;5.33;2.60;;;;;;;;;;4993115;28;20449;-73
2022/09/26 04:59:31;;;;;;;4.20;2.90;;;;;;;;;;4994307;28;20488;-73
2022/09/26 05:01:59;;;;;;;4.47;2.50;;;;;;;;;;4994186;28;20454;-73
2022/09/26 05:04:26;;;;;;;6.43;3.20;;;;;;;;;;4994810;28;20938;-73
2022/09/26 05:06:56;;;;;;;4.27;3.30;;;;;;;;;;4993956;28;20467;-75
2022/09/26 05:09:25;;;;;;;2.90;2.57;;;;;;;;;;4994396;28;20485;-74
2022/09/26 05:11:52;;;;;;;4.67;2.50;;;;;;;;;;4994308;28;20505;-74
2022/09/26 05:14:19;;;;;;;2.73;2.40;;;;;;;;;;4994799;28;20465;-75
2022/09/26 05:16:47;;;;;;;3.73;3.10;;;;;;;;;;4994747;28;20449;-75
2022/09/26 05:19:14;;;;;;;3.40;2.90;;;;;;;;;;4994738;28;20518;-74
2022/09/26 05:21:42;;;;;;;4.00;3.00;;;11.00;99.90;;;;;;4994938;28;20803;-73
2022/09/26 05:26:54;;;;;;;4.67;3.80;;;9.90;99.90;;;;;;4993855;28;20421;-75
2022/09/26 05:29:21;;;;;;;5.30;3.30;;;9.90;99.90;;;;;;4994604;28;20460;-74
2022/09/26 05:31:50;;;;;;;6.37;3.13;;;9.90;99.90;;;;;;4994495;28;20534;-73
2022/09/26 05:34:17;;;;;;;3.43;3.13;;;10.00;99.90;;;;;;4994511;28;20457;-75
2022/09/26 05:36:43;;;;;;;3.73;3.10;;;10.10;99.90;;;;;;4994185;28;20451;-75
2022/09/26 05:41:54;;;;;;;2.80;2.23;;;10.20;99.90;;;;;;4992631;28;20449;-74
2022/09/26 05:44:21;;;;;;;5.40;2.70;;;10.10;99.90;;;;;;4993883;28;20469;-74
2022/09/26 05:46:49;;;;;;;11.40;3.47;;;10.10;99.90;;;;;;4994092;28;20847;-74
2022/09/26 05:49:15;;;;;;;5.40;3.67;;;10.20;99.90;;;;;;4994143;28;20458;-74
2022/09/26 05:51:42;;;;;;;2.30;1.87;;;10.30;99.90;;;;;;4994182;28;20450;-74
2022/09/26 05:54:09;;;;;;;4.80;2.83;;;10.20;99.90;;;;;;4991850;28;20449;-74
2022/09/26 05:56:36;;;;;;;4.67;2.60;;;10.20;99.90;;;;;;4993830;28;20542;-74
2022/09/26 05:59:05;;;;;;;3.20;2.23;;;;;;;;;;4992981;28;20583;-75
2022/09/26 06:01:33;;;;;;;3.27;2.83;;;;;;;;;;4993856;28;20461;-74
2022/09/26 06:04:01;;;;;;;3.87;2.80;;;10.20;99.90;;;;;;4980683;28;20551;-74
2022/09/26 06:06:29;;;;;;;3.00;2.30;;;10.40;99.90;;;;;;4993729;28;20460;-74
2022/09/26 06:08:56;;;;;;;3.53;2.40;;;10.40;99.90;;;;;;4993370;28;20481;-75
2022/09/26 06:11:29;;;;;;;4.03;2.40;;;10.40;99.90;;;;;;4955173;28;20953;-75
2022/09/26 06:13:59;;;;;;;3.33;2.67;;;10.40;99.90;;;;;;4954619;28;20446;-74
2022/09/26 06:16:27;;;;;;;6.83;2.20;;;10.50;99.90;;;;;;4954642;28;20948;-74
2022/09/26 06:18:54;;;;;;;2.97;2.30;;;10.70;99.90;;;;;;4954462;28;20494;-74
2022/09/26 06:21:22;;;;;;;2.87;2.47;;;;;;;;;;4954738;28;20498;-74
2022/09/26 06:23:49;;;;;;;4.60;2.60;;;;;;;;;;4954691;28;20461;-73
2022/09/26 06:26:19;;;;;;;7.17;2.57;;;;;;;;;;4954807;28;20954;-75
2022/09/26 06:28:47;;;;;;;3.10;2.80;;;;;;;;;;4954516;28;20479;-74
2022/09/26 06:31:15;;;;;;;4.70;2.50;;;;;;;;;;4954707;28;20463;-74
2022/09/26 06:33:44;;;;;;;2.67;1.80;;;;;;;;;;4954822;28;20461;-74
2022/09/26 06:36:12;;;;;;;2.63;2.10;;;;;;;;;;4953809;28;20565;-74
2022/09/26 06:38:39;;;;;;;5.03;2.40;;;;;;;;;;4953793;28;20834;-74
2022/09/26 06:41:07;;;;;;;2.60;2.23;;;;;;;;;;4953372;28;20458;-74
2022/09/26 06:43:34;;;;;;;3.50;2.50;;;;;;;;;;4954327;28;20526;-74
2022/09/26 06:46:01;;;;;;;3.50;2.30;;;;;;;;;;4953875;28;20486;-74
2022/09/26 06:48:28;;;;;;;4.20;2.23;;;;;;;;;;4954189;28;20481;-74
2022/09/26 06:50:59;;;;;;;2.53;2.33;;;10.70;99.90;;;;;;4953646;28;20537;-74
2022/09/26 06:53:26;;;;;;;5.20;2.30;;;;;;;;;;4954276;28;20977;-74
2022/09/26 06:55:53;;;;;;;2.80;1.90;;;;;;;;;;4953677;28;20462;-73
2022/09/26 06:58:21;;;;;;;3.93;2.20;;;;;;;;;;4953414;28;20483;-73
2022/09/26 07:00:48;;;;;;;4.97;2.27;;;;;;;;;;4954223;28;20452;-74
2022/09/26 07:03:15;;;;;;;2.90;2.47;;;;;;;;;;4954289;28;20459;-74
2022/09/26 07:05:44;;;;;;;2.30;2.10;;;;;;;;;;4953431;28;20455;-74
2022/09/26 07:08:12;;;;;;;4.03;2.20;;;;;;;;;;4952776;28;20455;-73
2022/09/26 07:10:39;;;;;;;6.13;2.27;;;;;;;;;;4980643;28;20485;-74
2022/09/26 07:13:08;;;;;;;3.93;2.43;;;;;;;;;;4991417;28;20461;-74
2022/09/26 07:15:36;;;;;;;2.30;1.67;;;;;;;;;;4992074;28;20500;-74
2022/09/26 07:18:05;;;;;;;2.03;1.83;;;;;;;;;;4991474;28;20536;-74
2022/09/26 07:20:33;;;;;;;4.70;2.33;;;;;;;;;;4992367;28;20509;-74
2022/09/26 07:23:01;;;;;;;3.27;2.30;;;;;;;;;;4991925;28;20453;-74
2022/09/26 07:25:30;;;;;;;1.53;1.37;;;;;;;;;;4992481;28;20457;-74
2022/09/26 07:27:58;;;;;;;2.40;1.77;;;;;;;;;;4990983;28;20571;-73
2022/09/26 07:30:25;;;;;;;3.97;1.80;;;;;;;;;;4992057;28;20457;-74
2022/09/26 07:32:52;;;;;;;1.70;1.50;;;;;;;;;;4991322;28;20960;-73
2022/09/26 07:35:19;;;;;;;2.73;1.80;;;;;;;;;;4992353;28;20461;-74
2022/09/26 07:37:46;;;;;;;2.20;1.80;;;;;;;;;;4991660;28;20454;-74
2022/09/26 07:40:13;;;;;;;4.53;2.20;;;;;;;;;;4991321;28;20501;-74
2022/09/26 07:42:42;;;;;;;3.53;1.70;;;;;;;;;;4991728;28;20459;-74
2022/09/26 07:45:09;;;;;;;2.10;1.87;;;;;;;;;;4991271;28;20464;-74
2022/09/26 07:50:21;;;;;;;1.90;1.40;;;;;;;;;;4991899;28;20551;-74
2022/09/26 07:52:49;;;;;;;3.10;1.83;;;;;;;;;;4991554;28;20457;-73
2022/09/26 07:55:19;;;;;;;2.83;1.90;;;;;;;;;;4992000;28;20536;-74
2022/09/26 07:57:48;;;;;;;1.87;1.57;;;;;;;;;;4991308;28;20449;-74
2022/09/26 08:00:16;;;;;;;2.23;1.60;;;;;;;;;;4990935;28;20481;-74
2022/09/26 08:02:45;;;;;;;1.97;1.40;;;;;;;;;;4991678;28;20457;-74
2022/09/26 08:05:16;;;;;;;2.03;1.53;;;;;;;;;;4990935;28;20960;-74
2022/09/26 08:07:43;;;;;;;2.20;1.33;;;;;;;;;;4991375;28;20489;-74
2022/09/26 08:10:17;;;;;;;1.43;1.27;;;;;;;;;;4990708;28;20492;-74
2022/09/26 08:12:44;;;;;;;3.90;1.80;;;;;;;;;;4992021;28;20943;-74
2022/09/26 08:15:13;;;;;;;1.33;1.13;;;;;;;;;;4991782;28;20449;-74
2022/09/26 08:17:43;;;;;;;2.40;1.80;;;;;;;;;;4994990;28;20453;-74
2022/09/26 08:20:10;;;;;;;1.97;1.60;;;;;;;;;;4983373;28;20491;-75
2022/09/26 08:22:37;;;;;;;1.37;1.27;;;;;;;;;;4997528;28;20456;-74
2022/09/26 08:25:06;;;;;;;2.13;1.70;;;;;;;;;;4996996;28;20450;-74
2022/09/26 08:27:33;;;;;;;4.20;1.60;;;;;;;;;;4997398;28;20467;-74
2022/09/26 08:30:01;;;;;;;2.23;1.53;;;;;;;;;;4996166;28;20463;-74
2022/09/26 08:32:31;;;;;;;4.13;1.27;;;;;;;;;;4996159;28;20506;-75
2022/09/26 08:34:58;;;;;;;2.70;1.80;;;;;;;;;;4995770;28;20496;-75
2022/09/26 08:37:26;;;;;;;2.20;1.57;;;;;;;;;;4995332;28;21024;-75
2022/09/26 08:39:53;;;;;;;3.10;1.80;;;;;;;;;;4995015;28;20497;-75
2022/09/26 08:42:27;;;;;;;2.20;1.60;;;;;;;;;;4995510;28;20456;-74
2022/09/26 08:47:57;;;;;;;1.40;1.30;;;;;;;;;;4982333;28;20437;-74
2022/09/26 08:50:31;;;;;;;2.33;1.73;;;;;;;;;;4994967;28;20456;-74
2022/09/26 08:53:01;;;;;;;2.20;1.53;;;;;;;;;;4994816;28;20433;-74
2022/09/26 08:55:30;;;;;;;2.30;1.80;;;;;;;;;;4995377;28;20451;-75
2022/09/26 08:57:59;;;;;;;1.93;1.73;;;;;;;;;;4994518;28;20792;-74
2022/09/26 09:00:27;;;;;;;1.77;1.67;;;;;;;;;;4994819;28;20491;-74
2022/09/26 09:03:00;;;;;;;3.57;1.40;;;;;;;;;;4994642;28;20456;-74
2022/09/26 09:05:30;;;;;;;2.43;1.83;;;;;;;;;;4995036;28;20448;-74
2022/09/26 09:07:58;;;;;;;1.93;1.63;;;;;;;;;;4994252;28;20445;-74
2022/09/26 09:10:33;;;;;;;1.57;1.43;;;;;;;;;;4994618;28;20481;-74
2022/09/26 09:13:04;;;;;;;1.10;0.93;;;;;;;;;;4994597;28;20875;-74
2022/09/26 09:15:38;;;;;;;2.80;1.60;;;;;;;;;;4994407;28;20459;-74
2022/09/26 09:18:14;;;;;;;2.37;1.10;;;;;;;;;;4993741;28;20459;-74
2022/09/26 09:20:47;;;;;;;2.17;1.50;;;;;;;;;;4994273;28;20480;-74
2022/09/26 09:23:21;;;;;;;1.93;1.73;;;;;;;;;;4994554;28;20445;-74
2022/09/26 09:25:54;;;;;;;2.50;1.20;;;;;;;;;;4994287;28;20965;-74
2022/09/26 09:28:28;;;;;;;1.50;0.97;;;;;;;;;;4981482;28;20471;-74
2022/09/26 09:30:57;;;;;;;1.33;1.10;;;;;;;;;;4993913;28;20459;-74
2022/09/26 09:33:27;;;;;;;2.70;1.90;;;;;;;;;;4994510;28;20456;-74
2022/09/26 09:35:57;;;;;;;2.30;1.50;;;;;;;;;;4993960;28;20437;-74
2022/09/26 09:38:27;;;;;;;7.60;1.57;;;;;;;;;;4993787;28;20540;-74
2022/09/26 09:40:58;;;;;;;2.30;1.30;;;;;;;;;;4993389;28;20501;-73
2022/09/26 09:43:29;;;;;;;1.77;1.33;;;;;;;;;;4994652;28;20594;-74
2022/09/26 09:45:58;;;;;;;2.47;1.40;;;;;;;;;;4993443;28;20450;-73
2022/09/26 09:48:28;;;;;;;2.13;1.03;;;;;;;;;;4994341;28;20445;-74
2022/09/26 09:50:59;;;;;;;2.30;1.27;;;;;;;;;;4993479;28;20507;-74
2022/09/26 09:53:36;;;;;;;2.00;1.40;;;;;;;;;;4994376;28;20527;-74
2022/09/26 09:56:09;;;;;;;1.43;1.10;;;;;;;;;;4981328;28;20445;-74
2022/09/26 09:58:43;;;;;;;2.80;1.27;;;;;;;;;;4994051;28;20540;-74
2022/09/26 10:01:15;;;;;;;1.53;1.17;;;;;;;;;;4993570;28;20561;-74
2022/09/26 10:03:49;;;;;;;1.50;1.20;;;;;;;;;;4993909;28;20449;-74
2022/09/26 10:06:16;;;;;;;3.03;1.70;;;;;;;;;;4993986;28;20461;-74
2022/09/26 10:08:43;;;;;;;2.40;1.10;;;;;;;;;;4993717;28;20449;-74
2022/09/26 10:11:22;;;;;;;3.13;1.40;;;;;;;;;;4992751;28;20473;-75
2022/09/26 10:13:52;;;;;;;1.90;1.27;;;;;;;;;;4981171;28;20537;-73
2022/09/26 10:16:20;;;;;;;1.93;1.20;;;;;;;;;;4993409;28;21126;-74
2022/09/26 10:18:55;;;;;;;1.30;1.20;;;;;;;;;;4993806;28;20476;-73
2022/09/26 10:21:29;;;;;;;1.63;1.00;;;;;;;;;;4993270;28;21544;-74
2022/09/26 10:23:57;;;;;;;1.57;0.70;;;;;;;;;;4993224;28;20441;-74
2022/09/26 10:26:33;;;;;;;1.17;1.07;;;;;;;;;;4993273;28;21011;-74
2022/09/26 10:29:03;;;;;;;2.63;1.17;;;;;;;;;;4992779;28;20453;-74
2022/09/26 10:31:34;;;;;;;1.63;1.23;;;;;;;;;;4993138;28;20537;-73
2022/09/26 10:34:04;;;;;;;2.23;1.43;;;;;;;;;;4992677;28;20594;-73
2022/09/26 10:36:32;;;;;;;3.23;0.97;;;;;;;;;;4980201;28;20465;-73
2022/09/26 10:41:45;;;;;;;1.60;0.90;;;;;;;;;;4992941;28;20416;-74
2022/09/26 10:44:23;;;;;;;2.10;1.10;;;;;;;;;;4992111;28;20535;-74
2022/09/26 10:46:51;;;;;;;1.33;1.23;;;;;;;;;;4992004;28;20955;-72
2022/09/26 10:49:22;;;;;;;6.20;1.20;;;;;;;;;;4992974;28;20855;-73
2022/09/26 10:51:54;;;;;;;1.27;1.07;;;;;;;;;;4992730;28;20925;-72
2022/09/26 10:54:23;;;;;;;1.83;1.00;;;;;;;;;;4980212;28;20445;-73
2022/09/26 10:56:56;;;;;;;2.70;1.10;;;;;;;;;;4991820;28;20457;-73
2022/09/26 10:59:25;;;;;;;1.03;0.70;;;;;;;;;;4992518;28;20468;-73
2022/09/26 11:01:55;;;;;;;1.10;0.90;;;;;;;;;;4991909;28;20453;-73
2022/09/26 11:07:06;;;;;;;1.80;1.00;;;;;;;;;;4990474;28;20527;-74
2022/09/26 11:09:33;;;;;;;1.17;0.80;;;;;;;;;;4992125;28;20846;-73
2022/09/26 11:12:22;;;;;;;1.37;1.07;;;;;;;;;;4992107;28;20452;-73
2022/09/26 11:14:55;;;;;;;1.57;0.90;;;;;;;;;;4992107;28;20454;-72
2022/09/26 11:17:23;;;;;;;1.40;1.07;;;;;;;;;;4992193;28;20513;-73
2022/09/26 11:19:57;;;;;;;1.10;0.90;;;;;;;;;;4991829;28;20516;-72
2022/09/26 11:22:29;;;;;;;1.87;0.90;;;;;;;;;;4992649;28;20848;-73
2022/09/26 11:24:59;;;;;;;1.00;0.80;;;;;;;;;;4991857;28;20445;-73
2022/09/26 11:27:30;;;;;;;1.57;0.90;;;;;;;;;;4992234;28;20452;-74
2022/09/26 11:30:00;;;;;;;3.43;0.87;;;;;;;;;;4979069;28;20500;-74
2022/09/26 11:32:29;;;;;;;1.40;1.10;;;;;;;;;;4991873;28;20532;-74
2022/09/26 11:35:01;;;;;;;3.13;1.20;;;;;;;;;;4991602;28;20449;-73
2022/09/26 11:37:32;;;;;;;2.23;1.40;;;;;;;;;;4991936;28;20456;-73
2022/09/26 11:40:05;;;;;;;1.57;0.97;;;;;;;;;;4991555;28;20481;-72
2022/09/26 11:42:37;;;;;;;1.60;0.63;;;;;;;;;;4992162;28;20453;-73
2022/09/26 11:45:08;;;;;;;1.23;1.13;;;;;;;;;;4991082;28;20455;-73
2022/09/26 11:48:05;;;;;;;0.70;0.70;;;;;;;;;;4991965;28;20457;-73
2022/09/26 11:50:39;;;;;;;0.80;0.73;;;;;;;;;;4912607;29;20539;-73
2022/09/26 11:53:29;;;;;;;0.90;0.80;;;;;;;;;;4975821;28;20453;-73
2022/09/26 11:56:04;;;;;;;0.80;0.67;;;;;;;;;;4978426;28;20503;-73
2022/09/26 11:58:37;;;;;;;1.10;1.00;;;;;;;;;;4991886;28;20767;-73
2022/09/26 12:01:11;;;;;;;1.00;0.87;;;;;;;;;;4991088;28;20504;-74
2022/09/26 12:03:55;;;;;;;1.00;0.80;;;;;;;;;;4991637;28;20455;-73
2022/09/26 12:06:30;;;;;;;1.77;0.60;;;;;;;;;;4991573;28;20472;-71
2022/09/26 12:09:02;;;;;;;1.10;0.90;;;;;;;;;;4990630;28;20495;-69
2022/09/26 12:11:33;;;;;;;1.17;0.70;;;;;;;;;;4992052;28;20523;-70
2022/09/26 12:14:09;;;;;;;1.20;1.00;;;;;;;;;;4991282;28;20789;-69
2022/09/26 12:16:41;;;;;;;1.10;0.90;;;;;;;;;;4991580;28;20460;-68
2022/09/26 12:19:12;;;;;;;1.03;0.93;;;;;;;;;;4991262;28;20927;-69
2022/09/26 12:22:27;;;;;;;1.27;1.17;;;;;;;;;;4991773;28;21016;-69
2022/09/26 12:24:37;;;;;;;1.40;1.00;;;;;;;;;;4991368;28;20453;-69
2022/09/26 12:27:07;;;;;;;1.60;1.30;;;;;;;;;;4991039;28;20454;-69
2022/09/26 12:29:39;;;;;;;2.00;1.37;;;;;;;;;;4991405;28;20924;-69
2022/09/26 12:32:19;;;;;;;1.90;1.33;;;;;;;;;;4991049;28;20457;-69
2022/09/26 12:34:55;;;;;;;2.60;1.10;;;;;;;;;;4979415;28;20445;-70
2022/09/26 12:37:42;;;;;;;1.30;0.90;;;;;;;;;;4991358;28;20441;-69
2022/09/26 12:40:27;;;;;;;1.07;0.77;;;;;;;;;;4991172;28;20971;-70
2022/09/26 12:43:12;;;;;;;0.70;0.70;;;;;;;;;;4991398;28;20433;-70
2022/09/26 12:45:52;;;;;;;1.83;1.00;;;;;;;;;;4991910;28;20449;-70
2022/09/26 12:48:21;;;;;;;1.50;0.90;;;;;;;;;;4991786;28;20496;-70
2022/09/26 12:50:53;;;;;;;0.80;0.60;;;;;;;;;;4991753;28;20569;-70
2022/09/26 12:53:31;;;;;;;1.70;0.90;;;;;;;;;;4991981;28;20449;-70
2022/09/26 12:56:02;;;;;;;1.00;0.70;;;;;;;;;;4980200;28;20528;-70
2022/09/26 12:58:34;;;;;;;0.97;0.73;;;;;;;;;;4994437;28;20449;-71
2022/09/26 13:01:06;;;;;;;1.10;1.00;;;;;;;;;;4994529;28;20484;-70
2022/09/26 13:03:42;;;;;;;1.23;0.70;;;;;;;;;;4998763;28;20473;-71
2022/09/26 13:06:26;;;;;;;1.10;0.70;;;;;;;;;;5000011;28;20736;-71
2022/09/26 13:08:59;;;;;;;1.57;1.03;;;;;;;;;;4987741;28;20477;-71
2022/09/26 13:11:30;;;;;;;1.47;0.80;;;;;;;;;;4995923;28;20456;-71
2022/09/26 13:14:25;;;;;;;1.23;0.80;;;;;;;;;;5001538;28;20443;-71
2022/09/26 13:17:04;;;;;;;1.20;0.70;;;;;;;;;;5002333;28;20445;-71
2022/09/26 13:19:34;;;;;;;3.63;0.70;;;;;;;;;;5004250;28;20441;-72
2022/09/26 13:22:03;;;;;;;1.83;0.50;;;;;;;;;;5004115;28;20489;-72
2022/09/26 13:24:34;;;;;;;1.27;0.80;;;;;;;;;;5004913;28;20441;-72
2022/09/26 13:27:11;;;;;;;0.70;0.50;;;;;;;;;;5004546;28;20991;-72
2022/09/26 13:29:40;;;;;;;0.70;0.50;;;;;;;;;;5004834;28;20877;-72
2022/09/26 13:32:13;;;;;;;0.63;0.40;;;;;;;;;;5004184;28;20452;-72
2022/09/26 13:34:44;;;;;;;0.70;0.50;;;;;;;;;;5014606;28;20441;-72
2022/09/26 13:37:16;;;;;;;0.60;0.50;;;;;;;;;;5014978;28;20492;-73
2022/09/26 13:39:47;;;;;;;0.80;0.60;;;;;;;;;;5013765;28;20472;-72
2022/09/26 13:42:18;;;;;;;0.60;0.50;;;;;;;;;;5015618;28;20465;-72
2022/09/26 13:44:59;;;;;;;0.87;0.57;;;;;;;;;;5015141;28;20446;-73
2022/09/26 13:47:35;;;;;;;0.70;0.50;;;;;;;;;;5013376;28;20442;-73
2022/09/26 13:50:14;;;;;;;0.70;0.50;;;;;;;;;;5011182;28;20474;-74
2022/09/26 13:52:51;;;;;;;2.40;0.70;;;;;;;;;;4994696;28;20453;-73
2022/09/26 13:55:20;;;;;;;0.70;0.53;;;;;;;;;;4996360;28;20944;-74
2022/09/26 13:57:50;;;;;;;1.00;0.63;;;;;;;;;;4986823;28;20447;-73
2022/09/26 14:00:37;;;;;;;5.70;0.70;;;;;;;;;;4991810;28;20449;-73
2022/09/26 14:03:23;;;;;;;1.37;0.60;;;;;;;;;;4994563;28;20861;-73
2022/09/26 14:05:51;;;;;;;1.07;0.60;;;;;;;;;;4983225;28;20508;-72
2022/09/26 14:11:29;;;;;;;0.70;0.60;;;;;;;;;;4994562;28;20551;-73
2022/09/26 14:14:16;;;;;;;1.23;0.80;;;;;;;;;;4982437;28;20472;-72
2022/09/26 14:16:44;;;;;;;1.00;0.63;;;;;;;;;;4993957;28;20453;-73
2022/09/26 14:19:12;;;;;;;1.10;0.70;;;;;;;;;;4985788;28;20479;-74
2022/09/26 14:21:41;;;;;;;0.90;0.77;;;;;;;;;;4993933;28;20790;-73
2022/09/26 14:24:28;;;;;;;1.53;0.80;;;;;;;;;;4993523;28;20446;-73
2022/09/26 14:27:03;;;;;;;1.00;0.80;;;;;;;;;;4981945;28;20472;-73
2022/09/26 14:29:34;;;;;;;1.20;0.87;;;;;;;;;;4993965;28;20512;-72
2022/09/26 14:32:04;;;;;;;0.93;0.70;;;;;;;;;;4993653;28;20449;-74
2022/09/26 14:34:40;;;;;;;1.00;0.90;;;;;;;;;;4994175;28;20511;-73
2022/09/26 14:37:23;;;;;;;1.50;0.90;;;;;;;;;;4992655;28;20917;-73
2022/09/26 14:39:51;;;;;;;1.07;0.70;;;;;;;;;;4993204;28;20556;-72
2022/09/26 14:42:23;;;;;;;1.30;0.60;;;;;;;;;;4993437;28;20484;-74
2022/09/26 14:44:57;;;;;;;2.10;1.13;;;;;;;;;;4992541;28;21034;-73
2022/09/26 14:47:25;;;;;;;1.03;0.70;;;;;;;;;;4992961;28;20445;-74
2022/09/26 14:49:54;;;;;;;0.60;0.50;;;;;;;;;;4992470;28;20460;-73
2022/09/26 14:52:21;;;;;;;0.90;0.60;;;;;;;;;;4992921;28;20929;-73
2022/09/26 14:54:49;;;;;;;1.70;0.80;;;;;;;;;;4993354;28;20476;-73
2022/09/26 14:57:22;;;;;;;1.30;0.70;;;;;;;;;;4992692;28;20512;-75
2022/09/26 14:59:50;;;;;;;2.40;0.93;;;;;;;;;;4993081;28;20449;-71
2022/09/26 15:02:25;;;;;;;1.60;0.90;;;;;;;;;;4993093;28;20524;-74
2022/09/26 15:04:59;;;;;;;0.83;0.60;;;;;;;;;;4992589;28;20448;-73
2022/09/26 15:07:27;;;;;;;3.70;0.90;;;;;;;;;;4980530;28;20469;-74
2022/09/26 15:09:57;;;;;;;2.80;0.90;;;;;;;;;;4991972;28;20580;-74
2022/09/26 15:12:27;;;;;;;1.00;0.90;;;;;;;;;;4993006;28;20495;-73
2022/09/26 15:14:56;;;;;;;0.80;0.73;;;;;;;;;;4992312;28;20449;-73